sensor_id;sensor_type;location;lat;lon;timestamp;P1;durP1;ratioP1;P2;durP2;ratioP2
56999;SDS011;42891;50.006;21.964;2022-08-14T00:02:04;13.88;;;11.05;;
56999;SDS011;42891;50.006;21.964;2022-08-14T00:06:05;12.73;;;10.88;;
56999;SDS011;42891;50.006;21.964;2022-08-14T00:10:06;16.60;;;10.65;;
56999;SDS011;42891;50.006;21.964;2022-08-14T00:14:08;11.80;;;10.05;;
56999;SDS011;42891;50.006;21.964;2022-08-14T00:18:09;13.13;;;10.50;;
56999;SDS011;42891;50.006;21.964;2022-08-14T00:22:11;12.80;;;11.02;;
56999;SDS011;42891;50.006;21.964;2022-08-14T00:26:17;13.88;;;10.30;;
56999;SDS011;42891;50.006;21.964;2022-08-14T00:30:17;14.73;;;11.07;;
56999;SDS011;42891;50.006;21.964;2022-08-14T00:34:18;13.57;;;10.60;;
56999;SDS011;42891;50.006;21.964;2022-08-14T00:38:19;13.73;;;11.93;;
56999;SDS011;42891;50.006;21.964;2022-08-14T00:42:20;14.43;;;11.13;;
56999;SDS011;42891;50.006;21.964;2022-08-14T00:46:22;15.82;;;11.60;;
56999;SDS011;42891;50.006;21.964;2022-08-14T00:50:22;15.20;;;13.35;;
56999;SDS011;42891;50.006;21.964;2022-08-14T00:54:23;15.13;;;12.88;;
56999;SDS011;42891;50.006;21.964;2022-08-14T00:58:23;15.77;;;12.68;;
56999;SDS011;42891;50.006;21.964;2022-08-14T01:02:30;16.20;;;13.05;;
56999;SDS011;42891;50.006;21.964;2022-08-14T01:06:30;17.15;;;13.80;;
56999;SDS011;42891;50.006;21.964;2022-08-14T01:10:31;18.77;;;14.02;;
56999;SDS011;42891;50.006;21.964;2022-08-14T01:14:50;21.40;;;15.05;;
56999;SDS011;42891;50.006;21.964;2022-08-14T01:18:54;16.50;;;13.35;;
56999;SDS011;42891;50.006;21.964;2022-08-14T01:23:14;17.10;;;12.32;;
56999;SDS011;42891;50.006;21.964;2022-08-14T01:27:15;16.55;;;13.57;;
56999;SDS011;42891;50.006;21.964;2022-08-14T01:31:21;17.20;;;13.57;;
56999;SDS011;42891;50.006;21.964;2022-08-14T01:35:22;15.50;;;12.30;;
56999;SDS011;42891;50.006;21.964;2022-08-14T01:39:27;15.75;;;11.60;;
56999;SDS011;42891;50.006;21.964;2022-08-14T01:43:27;13.02;;;10.90;;
56999;SDS011;42891;50.006;21.964;2022-08-14T01:47:29;13.10;;;10.30;;
56999;SDS011;42891;50.006;21.964;2022-08-14T01:51:30;12.32;;;10.30;;
56999;SDS011;42891;50.006;21.964;2022-08-14T01:55:32;15.15;;;10.50;;
56999;SDS011;42891;50.006;21.964;2022-08-14T01:59:32;10.93;;;9.20;;
56999;SDS011;42891;50.006;21.964;2022-08-14T02:03:38;9.93;;;8.93;;
56999;SDS011;42891;50.006;21.964;2022-08-14T02:07:39;9.43;;;8.40;;
56999;SDS011;42891;50.006;21.964;2022-08-14T02:11:40;9.40;;;7.45;;
56999;SDS011;42891;50.006;21.964;2022-08-14T02:15:40;8.33;;;7.20;;
56999;SDS011;42891;50.006;21.964;2022-08-14T02:19:41;7.78;;;6.80;;
56999;SDS011;42891;50.006;21.964;2022-08-14T02:23:41;6.80;;;6.10;;
56999;SDS011;42891;50.006;21.964;2022-08-14T02:27:42;7.43;;;6.10;;
56999;SDS011;42891;50.006;21.964;2022-08-14T02:31:45;8.45;;;5.90;;
56999;SDS011;42891;50.006;21.964;2022-08-14T02:35:50;6.82;;;6.00;;
56999;SDS011;42891;50.006;21.964;2022-08-14T02:39:51;7.20;;;6.10;;
56999;SDS011;42891;50.006;21.964;2022-08-14T02:43:51;8.93;;;6.40;;
56999;SDS011;42891;50.006;21.964;2022-08-14T02:47:52;8.87;;;7.00;;
56999;SDS011;42891;50.006;21.964;2022-08-14T02:51:52;10.90;;;7.63;;
56999;SDS011;42891;50.006;21.964;2022-08-14T02:55:53;17.08;;;10.38;;
56999;SDS011;42891;50.006;21.964;2022-08-14T02:59:55;11.07;;;9.13;;
56999;SDS011;42891;50.006;21.964;2022-08-14T03:03:57;11.02;;;9.68;;
56999;SDS011;42891;50.006;21.964;2022-08-14T03:08:05;13.65;;;10.50;;
56999;SDS011;42891;50.006;21.964;2022-08-14T03:12:09;12.13;;;10.07;;
56999;SDS011;42891;50.006;21.964;2022-08-14T03:16:11;13.70;;;10.02;;
56999;SDS011;42891;50.006;21.964;2022-08-14T03:20:14;13.15;;;11.40;;
56999;SDS011;42891;50.006;21.964;2022-08-14T03:24:14;13.45;;;10.75;;
56999;SDS011;42891;50.006;21.964;2022-08-14T03:28:14;17.55;;;12.20;;
56999;SDS011;42891;50.006;21.964;2022-08-14T03:32:15;17.52;;;11.82;;
56999;SDS011;42891;50.006;21.964;2022-08-14T03:36:16;16.38;;;12.27;;
56999;SDS011;42891;50.006;21.964;2022-08-14T03:40:19;16.25;;;12.27;;
56999;SDS011;42891;50.006;21.964;2022-08-14T03:44:20;13.63;;;12.00;;
56999;SDS011;42891;50.006;21.964;2022-08-14T03:48:21;18.08;;;13.20;;
56999;SDS011;42891;50.006;21.964;2022-08-14T03:52:21;16.37;;;12.20;;
56999;SDS011;42891;50.006;21.964;2022-08-14T03:56:24;20.70;;;14.10;;
56999;SDS011;42891;50.006;21.964;2022-08-14T04:00:26;18.83;;;13.73;;
56999;SDS011;42891;50.006;21.964;2022-08-14T04:04:28;22.52;;;14.70;;
56999;SDS011;42891;50.006;21.964;2022-08-14T04:08:33;22.35;;;15.20;;
56999;SDS011;42891;50.006;21.964;2022-08-14T04:12:34;18.00;;;14.15;;
56999;SDS011;42891;50.006;21.964;2022-08-14T04:16:35;21.17;;;14.25;;
56999;SDS011;42891;50.006;21.964;2022-08-14T04:20:36;23.27;;;15.68;;
56999;SDS011;42891;50.006;21.964;2022-08-14T04:24:38;20.95;;;14.70;;
56999;SDS011;42891;50.006;21.964;2022-08-14T04:28:40;20.13;;;15.80;;
56999;SDS011;42891;50.006;21.964;2022-08-14T04:32:41;24.05;;;15.25;;
56999;SDS011;42891;50.006;21.964;2022-08-14T04:36:42;20.25;;;15.13;;
56999;SDS011;42891;50.006;21.964;2022-08-14T04:41:01;19.60;;;14.70;;
56999;SDS011;42891;50.006;21.964;2022-08-14T04:45:23;21.65;;;15.63;;
56999;SDS011;42891;50.006;21.964;2022-08-14T04:49:25;19.35;;;15.25;;
56999;SDS011;42891;50.006;21.964;2022-08-14T04:53:27;22.90;;;16.23;;
56999;SDS011;42891;50.006;21.964;2022-08-14T04:57:28;23.33;;;16.20;;
56999;SDS011;42891;50.006;21.964;2022-08-14T05:01:28;21.10;;;15.65;;
56999;SDS011;42891;50.006;21.964;2022-08-14T05:05:30;22.10;;;15.32;;
56999;SDS011;42891;50.006;21.964;2022-08-14T05:09:31;21.55;;;15.68;;
56999;SDS011;42891;50.006;21.964;2022-08-14T05:13:32;20.97;;;15.27;;
56999;SDS011;42891;50.006;21.964;2022-08-14T05:17:39;19.02;;;14.95;;
56999;SDS011;42891;50.006;21.964;2022-08-14T05:21:40;21.20;;;14.65;;
56999;SDS011;42891;50.006;21.964;2022-08-14T05:25:41;22.67;;;15.93;;
56999;SDS011;42891;50.006;21.964;2022-08-14T05:29:42;20.73;;;14.52;;
56999;SDS011;42891;50.006;21.964;2022-08-14T05:33:44;22.77;;;15.02;;
56999;SDS011;42891;50.006;21.964;2022-08-14T05:37:45;21.15;;;14.75;;
56999;SDS011;42891;50.006;21.964;2022-08-14T05:41:45;23.35;;;16.30;;
56999;SDS011;42891;50.006;21.964;2022-08-14T05:45:45;21.20;;;15.90;;
56999;SDS011;42891;50.006;21.964;2022-08-14T05:49:47;20.65;;;14.15;;
56999;SDS011;42891;50.006;21.964;2022-08-14T05:53:47;21.13;;;15.67;;
56999;SDS011;42891;50.006;21.964;2022-08-14T06:01:52;23.25;;;14.80;;
56999;SDS011;42891;50.006;21.964;2022-08-14T06:05:53;18.52;;;14.60;;
56999;SDS011;42891;50.006;21.964;2022-08-14T06:09:54;18.92;;;14.68;;
56999;SDS011;42891;50.006;21.964;2022-08-14T06:13:54;21.23;;;15.32;;
56999;SDS011;42891;50.006;21.964;2022-08-14T06:17:54;20.87;;;14.33;;
56999;SDS011;42891;50.006;21.964;2022-08-14T06:21:55;17.58;;;14.75;;
56999;SDS011;42891;50.006;21.964;2022-08-14T06:25:55;20.07;;;14.83;;
56999;SDS011;42891;50.006;21.964;2022-08-14T06:29:55;18.95;;;14.95;;
56999;SDS011;42891;50.006;21.964;2022-08-14T06:33:56;20.45;;;15.40;;
56999;SDS011;42891;50.006;21.964;2022-08-14T06:37:58;17.87;;;13.90;;
56999;SDS011;42891;50.006;21.964;2022-08-14T06:41:59;20.23;;;14.70;;
56999;SDS011;42891;50.006;21.964;2022-08-14T06:45:59;17.77;;;14.45;;
56999;SDS011;42891;50.006;21.964;2022-08-14T06:50:00;18.48;;;13.43;;
56999;SDS011;42891;50.006;21.964;2022-08-14T06:54:02;18.20;;;14.77;;
56999;SDS011;42891;50.006;21.964;2022-08-14T06:58:02;18.20;;;14.30;;
56999;SDS011;42891;50.006;21.964;2022-08-14T07:02:03;17.40;;;13.90;;
56999;SDS011;42891;50.006;21.964;2022-08-14T07:06:21;18.52;;;14.55;;
56999;SDS011;42891;50.006;21.964;2022-08-14T07:10:22;16.02;;;13.73;;
56999;SDS011;42891;50.006;21.964;2022-08-14T07:14:23;15.55;;;13.55;;
56999;SDS011;42891;50.006;21.964;2022-08-14T07:18:24;18.15;;;14.18;;
56999;SDS011;42891;50.006;21.964;2022-08-14T07:22:26;18.70;;;14.70;;
56999;SDS011;42891;50.006;21.964;2022-08-14T07:26:26;18.25;;;16.02;;
56999;SDS011;42891;50.006;21.964;2022-08-14T07:30:27;18.77;;;14.90;;
56999;SDS011;42891;50.006;21.964;2022-08-14T07:34:27;17.23;;;14.43;;
56999;SDS011;42891;50.006;21.964;2022-08-14T07:38:28;23.02;;;17.20;;
56999;SDS011;42891;50.006;21.964;2022-08-14T07:42:29;22.02;;;17.98;;
56999;SDS011;42891;50.006;21.964;2022-08-14T07:46:30;21.35;;;17.08;;
56999;SDS011;42891;50.006;21.964;2022-08-14T07:50:30;24.45;;;16.48;;
56999;SDS011;42891;50.006;21.964;2022-08-14T07:54:31;19.60;;;17.35;;
56999;SDS011;42891;50.006;21.964;2022-08-14T07:58:32;20.98;;;17.73;;
56999;SDS011;42891;50.006;21.964;2022-08-14T08:02:32;19.42;;;16.67;;
56999;SDS011;42891;50.006;21.964;2022-08-14T08:06:33;19.48;;;16.35;;
56999;SDS011;42891;50.006;21.964;2022-08-14T08:10:34;19.67;;;16.05;;
56999;SDS011;42891;50.006;21.964;2022-08-14T08:14:37;17.88;;;15.85;;
56999;SDS011;42891;50.006;21.964;2022-08-14T08:18:40;27.45;;;18.85;;
56999;SDS011;42891;50.006;21.964;2022-08-14T08:22:40;22.70;;;18.45;;
56999;SDS011;42891;50.006;21.964;2022-08-14T08:26:42;22.02;;;18.00;;
56999;SDS011;42891;50.006;21.964;2022-08-14T08:30:46;25.02;;;19.58;;
56999;SDS011;42891;50.006;21.964;2022-08-14T08:34:48;24.70;;;19.65;;
56999;SDS011;42891;50.006;21.964;2022-08-14T08:38:48;27.60;;;20.98;;
56999;SDS011;42891;50.006;21.964;2022-08-14T08:42:49;25.08;;;19.38;;
56999;SDS011;42891;50.006;21.964;2022-08-14T08:46:55;24.30;;;17.83;;
56999;SDS011;42891;50.006;21.964;2022-08-14T08:50:57;21.38;;;16.83;;
56999;SDS011;42891;50.006;21.964;2022-08-14T08:55:00;18.98;;;16.35;;
56999;SDS011;42891;50.006;21.964;2022-08-14T08:59:01;17.90;;;14.60;;
56999;SDS011;42891;50.006;21.964;2022-08-14T09:03:06;19.38;;;15.60;;
56999;SDS011;42891;50.006;21.964;2022-08-14T09:11:09;22.95;;;19.10;;
56999;SDS011;42891;50.006;21.964;2022-08-14T09:15:11;19.88;;;16.30;;
56999;SDS011;42891;50.006;21.964;2022-08-14T09:19:11;25.47;;;19.03;;
56999;SDS011;42891;50.006;21.964;2022-08-14T09:23:12;19.15;;;14.88;;
56999;SDS011;42891;50.006;21.964;2022-08-14T09:27:13;20.88;;;16.23;;
56999;SDS011;42891;50.006;21.964;2022-08-14T09:31:14;18.40;;;14.40;;
56999;SDS011;42891;50.006;21.964;2022-08-14T09:35:19;17.50;;;14.98;;
56999;SDS011;42891;50.006;21.964;2022-08-14T09:44:02;21.67;;;15.88;;
56999;SDS011;42891;50.006;21.964;2022-08-14T09:48:15;22.65;;;17.02;;
56999;SDS011;42891;50.006;21.964;2022-08-14T09:52:17;26.45;;;18.00;;
56999;SDS011;42891;50.006;21.964;2022-08-14T09:56:19;27.52;;;20.27;;
56999;SDS011;42891;50.006;21.964;2022-08-14T10:00:21;27.95;;;19.42;;
56999;SDS011;42891;50.006;21.964;2022-08-14T10:04:41;26.85;;;20.27;;
56999;SDS011;42891;50.006;21.964;2022-08-14T10:08:52;32.00;;;20.25;;
56999;SDS011;42891;50.006;21.964;2022-08-14T10:13:04;30.00;;;21.10;;
56999;SDS011;42891;50.006;21.964;2022-08-14T10:17:06;31.33;;;21.95;;
56999;SDS011;42891;50.006;21.964;2022-08-14T10:21:07;35.00;;;23.00;;
56999;SDS011;42891;50.006;21.964;2022-08-14T10:25:12;35.03;;;24.45;;
56999;SDS011;42891;50.006;21.964;2022-08-14T10:29:13;36.53;;;24.37;;
56999;SDS011;42891;50.006;21.964;2022-08-14T10:33:23;35.55;;;24.90;;
56999;SDS011;42891;50.006;21.964;2022-08-14T10:37:25;39.75;;;25.00;;
56999;SDS011;42891;50.006;21.964;2022-08-14T10:41:38;38.63;;;25.75;;
56999;SDS011;42891;50.006;21.964;2022-08-14T10:45:51;37.47;;;25.52;;
56999;SDS011;42891;50.006;21.964;2022-08-14T10:49:57;36.30;;;24.85;;
56999;SDS011;42891;50.006;21.964;2022-08-14T10:54:03;34.03;;;24.35;;
56999;SDS011;42891;50.006;21.964;2022-08-14T10:58:08;33.75;;;24.45;;
56999;SDS011;42891;50.006;21.964;2022-08-14T11:02:18;34.55;;;24.42;;
56999;SDS011;42891;50.006;21.964;2022-08-14T11:06:21;34.90;;;24.65;;
56999;SDS011;42891;50.006;21.964;2022-08-14T11:10:23;32.63;;;23.90;;
56999;SDS011;42891;50.006;21.964;2022-08-14T11:14:25;28.42;;;22.98;;
56999;SDS011;42891;50.006;21.964;2022-08-14T11:18:27;27.73;;;20.23;;
56999;SDS011;42891;50.006;21.964;2022-08-14T11:22:30;23.50;;;18.42;;
56999;SDS011;42891;50.006;21.964;2022-08-14T11:26:32;23.15;;;17.58;;
56999;SDS011;42891;50.006;21.964;2022-08-14T11:30:34;22.20;;;17.23;;
56999;SDS011;42891;50.006;21.964;2022-08-14T11:34:39;23.38;;;17.38;;
56999;SDS011;42891;50.006;21.964;2022-08-14T11:38:41;22.63;;;17.98;;
56999;SDS011;42891;50.006;21.964;2022-08-14T11:42:45;22.02;;;18.75;;
56999;SDS011;42891;50.006;21.964;2022-08-14T11:46:46;21.85;;;16.02;;
56999;SDS011;42891;50.006;21.964;2022-08-14T11:50:47;18.35;;;15.82;;
56999;SDS011;42891;50.006;21.964;2022-08-14T11:54:55;17.02;;;14.02;;
56999;SDS011;42891;50.006;21.964;2022-08-14T11:58:58;16.33;;;13.48;;
56999;SDS011;42891;50.006;21.964;2022-08-14T12:02:59;19.70;;;12.50;;
56999;SDS011;42891;50.006;21.964;2022-08-14T12:07:00;14.45;;;12.48;;
56999;SDS011;42891;50.006;21.964;2022-08-14T12:11:07;17.38;;;11.68;;
56999;SDS011;42891;50.006;21.964;2022-08-14T12:15:09;15.60;;;12.07;;
56999;SDS011;42891;50.006;21.964;2022-08-14T12:19:11;15.60;;;12.07;;
56999;SDS011;42891;50.006;21.964;2022-08-14T12:23:19;12.60;;;11.30;;
56999;SDS011;42891;50.006;21.964;2022-08-14T12:27:21;14.18;;;12.35;;
56999;SDS011;42891;50.006;21.964;2022-08-14T12:31:23;15.52;;;11.50;;
56999;SDS011;42891;50.006;21.964;2022-08-14T12:35:35;14.02;;;11.43;;
56999;SDS011;42891;50.006;21.964;2022-08-14T12:39:39;14.25;;;11.60;;
56999;SDS011;42891;50.006;21.964;2022-08-14T12:47:46;13.85;;;10.95;;
56999;SDS011;42891;50.006;21.964;2022-08-14T12:51:57;12.38;;;10.80;;
56999;SDS011;42891;50.006;21.964;2022-08-14T12:55:59;15.13;;;10.90;;
56999;SDS011;42891;50.006;21.964;2022-08-14T13:00:06;12.90;;;10.70;;
56999;SDS011;42891;50.006;21.964;2022-08-14T13:04:17;11.60;;;10.40;;
56999;SDS011;42891;50.006;21.964;2022-08-14T13:08:20;12.70;;;9.98;;
56999;SDS011;42891;50.006;21.964;2022-08-14T13:12:22;15.27;;;10.32;;
56999;SDS011;42891;50.006;21.964;2022-08-14T13:16:27;13.88;;;10.77;;
56999;SDS011;42891;50.006;21.964;2022-08-14T13:20:29;12.30;;;10.45;;
56999;SDS011;42891;50.006;21.964;2022-08-14T13:24:32;13.02;;;10.10;;
56999;SDS011;42891;50.006;21.964;2022-08-14T13:28:34;14.55;;;11.15;;
56999;SDS011;42891;50.006;21.964;2022-08-14T13:32:39;12.98;;;10.75;;
56999;SDS011;42891;50.006;21.964;2022-08-14T13:36:43;14.15;;;10.45;;
56999;SDS011;42891;50.006;21.964;2022-08-14T13:40:43;11.52;;;10.32;;
56999;SDS011;42891;50.006;21.964;2022-08-14T13:44:44;12.90;;;10.18;;
56999;SDS011;42891;50.006;21.964;2022-08-14T13:48:44;12.38;;;10.10;;
56999;SDS011;42891;50.006;21.964;2022-08-14T13:52:49;12.68;;;10.23;;
56999;SDS011;42891;50.006;21.964;2022-08-14T13:56:53;13.57;;;10.38;;
56999;SDS011;42891;50.006;21.964;2022-08-14T14:00:58;11.93;;;9.70;;
56999;SDS011;42891;50.006;21.964;2022-08-14T14:04:59;15.45;;;9.75;;
56999;SDS011;42891;50.006;21.964;2022-08-14T14:09:02;12.05;;;9.77;;
56999;SDS011;42891;50.006;21.964;2022-08-14T14:13:05;10.55;;;9.45;;
56999;SDS011;42891;50.006;21.964;2022-08-14T14:17:09;11.50;;;9.73;;
56999;SDS011;42891;50.006;21.964;2022-08-14T14:21:12;13.02;;;10.18;;
56999;SDS011;42891;50.006;21.964;2022-08-14T14:25:18;13.57;;;9.70;;
56999;SDS011;42891;50.006;21.964;2022-08-14T14:29:19;13.23;;;9.65;;
56999;SDS011;42891;50.006;21.964;2022-08-14T14:33:22;13.73;;;10.07;;
56999;SDS011;42891;50.006;21.964;2022-08-14T14:37:24;18.02;;;10.23;;
56999;SDS011;42891;50.006;21.964;2022-08-14T14:41:27;12.82;;;10.57;;
56999;SDS011;42891;50.006;21.964;2022-08-14T14:45:28;14.30;;;10.00;;
56999;SDS011;42891;50.006;21.964;2022-08-14T14:49:29;20.38;;;10.70;;
56999;SDS011;42891;50.006;21.964;2022-08-14T14:53:31;12.75;;;11.02;;
56999;SDS011;42891;50.006;21.964;2022-08-14T14:57:33;13.73;;;10.68;;
56999;SDS011;42891;50.006;21.964;2022-08-14T15:01:33;11.75;;;10.48;;
56999;SDS011;42891;50.006;21.964;2022-08-14T15:05:34;14.70;;;11.38;;
56999;SDS011;42891;50.006;21.964;2022-08-14T15:09:35;16.80;;;12.00;;
56999;SDS011;42891;50.006;21.964;2022-08-14T15:13:36;11.60;;;10.40;;
56999;SDS011;42891;50.006;21.964;2022-08-14T15:17:37;12.25;;;9.90;;
56999;SDS011;42891;50.006;21.964;2022-08-14T15:21:39;11.32;;;10.15;;
56999;SDS011;42891;50.006;21.964;2022-08-14T15:25:40;14.77;;;10.27;;
56999;SDS011;42891;50.006;21.964;2022-08-14T15:29:42;17.75;;;11.30;;
56999;SDS011;42891;50.006;21.964;2022-08-14T15:33:44;15.27;;;6.82;;
56999;SDS011;42891;50.006;21.964;2022-08-14T15:38:03;9.15;;;6.63;;
56999;SDS011;42891;50.006;21.964;2022-08-14T15:42:09;11.00;;;6.30;;
56999;SDS011;42891;50.006;21.964;2022-08-14T15:46:09;9.97;;;6.07;;
56999;SDS011;42891;50.006;21.964;2022-08-14T15:50:10;15.57;;;6.27;;
56999;SDS011;42891;50.006;21.964;2022-08-14T15:54:11;11.73;;;6.20;;
56999;SDS011;42891;50.006;21.964;2022-08-14T15:58:12;9.50;;;6.37;;
56999;SDS011;42891;50.006;21.964;2022-08-14T16:02:12;7.53;;;6.60;;
56999;SDS011;42891;50.006;21.964;2022-08-14T16:06:16;11.35;;;6.90;;
56999;SDS011;42891;50.006;21.964;2022-08-14T16:10:17;8.82;;;6.88;;
56999;SDS011;42891;50.006;21.964;2022-08-14T16:14:18;10.02;;;6.70;;
56999;SDS011;42891;50.006;21.964;2022-08-14T16:18:18;10.37;;;7.00;;
56999;SDS011;42891;50.006;21.964;2022-08-14T16:22:19;11.45;;;7.85;;
56999;SDS011;42891;50.006;21.964;2022-08-14T16:26:20;10.90;;;7.45;;
56999;SDS011;42891;50.006;21.964;2022-08-14T16:30:24;12.23;;;7.40;;
56999;SDS011;42891;50.006;21.964;2022-08-14T16:34:25;7.43;;;6.72;;
56999;SDS011;42891;50.006;21.964;2022-08-14T16:38:28;11.35;;;6.93;;
56999;SDS011;42891;50.006;21.964;2022-08-14T16:42:31;10.63;;;6.53;;
56999;SDS011;42891;50.006;21.964;2022-08-14T16:46:34;8.85;;;7.05;;
56999;SDS011;42891;50.006;21.964;2022-08-14T16:50:37;14.70;;;7.17;;
56999;SDS011;42891;50.006;21.964;2022-08-14T16:54:41;8.70;;;6.78;;
56999;SDS011;42891;50.006;21.964;2022-08-14T16:58:42;8.52;;;6.70;;
56999;SDS011;42891;50.006;21.964;2022-08-14T17:02:44;9.43;;;7.00;;
56999;SDS011;42891;50.006;21.964;2022-08-14T17:18:56;11.05;;;7.93;;
56999;SDS011;42891;50.006;21.964;2022-08-14T17:22:59;11.02;;;7.72;;
56999;SDS011;42891;50.006;21.964;2022-08-14T17:27:00;10.35;;;9.07;;
56999;SDS011;42891;50.006;21.964;2022-08-14T17:31:00;11.25;;;8.77;;
56999;SDS011;42891;50.006;21.964;2022-08-14T17:35:02;10.98;;;9.35;;
56999;SDS011;42891;50.006;21.964;2022-08-14T17:43:09;16.05;;;12.43;;
56999;SDS011;42891;50.006;21.964;2022-08-14T17:47:09;20.60;;;11.27;;
56999;SDS011;42891;50.006;21.964;2022-08-14T17:51:10;13.15;;;9.82;;
56999;SDS011;42891;50.006;21.964;2022-08-14T17:55:11;12.10;;;10.30;;
56999;SDS011;42891;50.006;21.964;2022-08-14T17:59:12;12.48;;;9.88;;
56999;SDS011;42891;50.006;21.964;2022-08-14T18:03:13;12.68;;;10.38;;
56999;SDS011;42891;50.006;21.964;2022-08-14T18:07:15;15.13;;;10.23;;
56999;SDS011;42891;50.006;21.964;2022-08-14T18:11:19;13.60;;;10.55;;
56999;SDS011;42891;50.006;21.964;2022-08-14T18:15:21;17.90;;;11.82;;
56999;SDS011;42891;50.006;21.964;2022-08-14T18:19:24;13.60;;;10.88;;
56999;SDS011;42891;50.006;21.964;2022-08-14T18:23:26;15.07;;;10.45;;
56999;SDS011;42891;50.006;21.964;2022-08-14T18:27:34;16.20;;;11.00;;
56999;SDS011;42891;50.006;21.964;2022-08-14T18:31:45;14.88;;;11.20;;
56999;SDS011;42891;50.006;21.964;2022-08-14T18:35:47;23.30;;;14.32;;
56999;SDS011;42891;50.006;21.964;2022-08-14T18:39:52;20.15;;;13.25;;
56999;SDS011;42891;50.006;21.964;2022-08-14T18:43:52;18.02;;;12.70;;
56999;SDS011;42891;50.006;21.964;2022-08-14T18:52:18;14.88;;;12.02;;
56999;SDS011;42891;50.006;21.964;2022-08-14T18:56:53;13.60;;;11.50;;
56999;SDS011;42891;50.006;21.964;2022-08-14T19:00:59;17.73;;;10.98;;
56999;SDS011;42891;50.006;21.964;2022-08-14T19:05:01;17.55;;;10.82;;
56999;SDS011;42891;50.006;21.964;2022-08-14T19:09:02;13.25;;;10.82;;
56999;SDS011;42891;50.006;21.964;2022-08-14T19:13:03;15.48;;;11.18;;
56999;SDS011;42891;50.006;21.964;2022-08-14T19:17:18;15.77;;;11.35;;
56999;SDS011;42891;50.006;21.964;2022-08-14T19:21:54;14.77;;;11.13;;
56999;SDS011;42891;50.006;21.964;2022-08-14T19:26:03;13.20;;;10.50;;
56999;SDS011;42891;50.006;21.964;2022-08-14T19:39:00;13.90;;;10.30;;
56999;SDS011;42891;50.006;21.964;2022-08-14T19:43:01;16.30;;;11.05;;
56999;SDS011;42891;50.006;21.964;2022-08-14T19:47:02;16.90;;;11.63;;
56999;SDS011;42891;50.006;21.964;2022-08-14T19:51:03;14.40;;;10.95;;
56999;SDS011;42891;50.006;21.964;2022-08-14T19:55:17;13.80;;;10.15;;
56999;SDS011;42891;50.006;21.964;2022-08-14T19:59:21;13.00;;;10.60;;
56999;SDS011;42891;50.006;21.964;2022-08-14T20:03:22;14.77;;;11.07;;
56999;SDS011;42891;50.006;21.964;2022-08-14T20:11:31;12.55;;;9.77;;
56999;SDS011;42891;50.006;21.964;2022-08-14T20:15:36;13.43;;;10.95;;
56999;SDS011;42891;50.006;21.964;2022-08-14T20:19:38;16.95;;;11.25;;
56999;SDS011;42891;50.006;21.964;2022-08-14T20:23:39;16.98;;;11.95;;
56999;SDS011;42891;50.006;21.964;2022-08-14T20:27:40;14.88;;;11.23;;
56999;SDS011;42891;50.006;21.964;2022-08-14T20:31:41;14.95;;;10.95;;
56999;SDS011;42891;50.006;21.964;2022-08-14T20:39:44;15.32;;;11.18;;
56999;SDS011;42891;50.006;21.964;2022-08-14T20:43:45;17.77;;;10.68;;
56999;SDS011;42891;50.006;21.964;2022-08-14T20:48:04;15.13;;;11.77;;
56999;SDS011;42891;50.006;21.964;2022-08-14T20:52:06;16.38;;;12.45;;
56999;SDS011;42891;50.006;21.964;2022-08-14T20:56:19;15.63;;;11.57;;
56999;SDS011;42891;50.006;21.964;2022-08-14T21:00:42;17.00;;;11.85;;
56999;SDS011;42891;50.006;21.964;2022-08-14T21:04:51;14.98;;;11.77;;
56999;SDS011;42891;50.006;21.964;2022-08-14T21:08:56;16.95;;;11.68;;
56999;SDS011;42891;50.006;21.964;2022-08-14T21:13:00;14.27;;;11.52;;
56999;SDS011;42891;50.006;21.964;2022-08-14T21:17:00;15.67;;;11.13;;
56999;SDS011;42891;50.006;21.964;2022-08-14T21:21:03;15.32;;;11.63;;
56999;SDS011;42891;50.006;21.964;2022-08-14T21:25:06;15.00;;;11.90;;
56999;SDS011;42891;50.006;21.964;2022-08-14T21:29:08;17.10;;;11.02;;
56999;SDS011;42891;50.006;21.964;2022-08-14T21:33:10;15.85;;;11.68;;
56999;SDS011;42891;50.006;21.964;2022-08-14T21:37:10;15.80;;;11.88;;
56999;SDS011;42891;50.006;21.964;2022-08-14T21:41:12;16.05;;;12.20;;
56999;SDS011;42891;50.006;21.964;2022-08-14T21:45:21;18.38;;;12.70;;
56999;SDS011;42891;50.006;21.964;2022-08-14T21:49:25;16.45;;;11.90;;
56999;SDS011;42891;50.006;21.964;2022-08-14T21:53:29;16.50;;;12.00;;
56999;SDS011;42891;50.006;21.964;2022-08-14T21:57:32;18.80;;;11.70;;
56999;SDS011;42891;50.006;21.964;2022-08-14T22:01:32;14.10;;;11.13;;
56999;SDS011;42891;50.006;21.964;2022-08-14T22:05:32;15.30;;;11.33;;
56999;SDS011;42891;50.006;21.964;2022-08-14T22:09:33;16.85;;;13.18;;
56999;SDS011;42891;50.006;21.964;2022-08-14T22:13:33;18.58;;;12.02;;
56999;SDS011;42891;50.006;21.964;2022-08-14T22:17:34;17.38;;;12.90;;
56999;SDS011;42891;50.006;21.964;2022-08-14T22:21:34;16.00;;;12.07;;
56999;SDS011;42891;50.006;21.964;2022-08-14T22:25:37;16.35;;;12.75;;
56999;SDS011;42891;50.006;21.964;2022-08-14T22:29:39;17.15;;;12.35;;
56999;SDS011;42891;50.006;21.964;2022-08-14T22:33:41;15.35;;;12.25;;
56999;SDS011;42891;50.006;21.964;2022-08-14T22:37:42;14.90;;;11.77;;
56999;SDS011;42891;50.006;21.964;2022-08-14T22:41:43;14.93;;;11.88;;
56999;SDS011;42891;50.006;21.964;2022-08-14T22:45:45;17.83;;;11.70;;
56999;SDS011;42891;50.006;21.964;2022-08-14T22:49:46;14.10;;;11.43;;
56999;SDS011;42891;50.006;21.964;2022-08-14T22:53:47;15.37;;;11.37;;
56999;SDS011;42891;50.006;21.964;2022-08-14T22:57:49;15.38;;;12.00;;
56999;SDS011;42891;50.006;21.964;2022-08-14T23:01:56;16.00;;;12.27;;
56999;SDS011;42891;50.006;21.964;2022-08-14T23:06:00;16.13;;;12.73;;
56999;SDS011;42891;50.006;21.964;2022-08-14T23:10:01;15.40;;;12.55;;
56999;SDS011;42891;50.006;21.964;2022-08-14T23:14:01;18.73;;;13.80;;
56999;SDS011;42891;50.006;21.964;2022-08-14T23:18:02;13.80;;;12.10;;
56999;SDS011;42891;50.006;21.964;2022-08-14T23:22:03;18.50;;;13.10;;
56999;SDS011;42891;50.006;21.964;2022-08-14T23:26:05;15.07;;;12.18;;
56999;SDS011;42891;50.006;21.964;2022-08-14T23:30:08;13.15;;;11.50;;
56999;SDS011;42891;50.006;21.964;2022-08-14T23:34:23;15.40;;;12.25;;
56999;SDS011;42891;50.006;21.964;2022-08-14T23:38:24;14.43;;;12.48;;
56999;SDS011;42891;50.006;21.964;2022-08-14T23:42:25;16.13;;;12.27;;
56999;SDS011;42891;50.006;21.964;2022-08-14T23:46:25;20.73;;;12.80;;
56999;SDS011;42891;50.006;21.964;2022-08-14T23:50:27;19.20;;;13.45;;
56999;SDS011;42891;50.006;21.964;2022-08-14T23:54:28;17.30;;;12.70;;
56999;SDS011;42891;50.006;21.964;2022-08-14T23:58:29;17.37;;;12.07;;
